sensor_id;sensor_type;location;lat;lon;timestamp;pressure;altitude;pressure_sealevel;temperature;humidity
33151;BME280;19508;42.578;23.416;2023-02-19T00:01:15;93966.03;;;5.89;60.94
33151;BME280;19508;42.578;23.416;2023-02-19T00:03:42;93957.94;;;5.78;61.69
33151;BME280;19508;42.578;23.416;2023-02-19T00:06:09;93959.28;;;5.93;61.29
33151;BME280;19508;42.578;23.416;2023-02-19T00:08:36;93956.84;;;5.85;61.41
33151;BME280;19508;42.578;23.416;2023-02-19T00:11:07;93953.72;;;5.88;61.64
33151;BME280;19508;42.578;23.416;2023-02-19T00:13:41;93944.66;;;5.89;61.07
33151;BME280;19508;42.578;23.416;2023-02-19T00:16:19;93943.75;;;5.59;62.36
33151;BME280;19508;42.578;23.416;2023-02-19T00:18:45;93951.63;;;5.72;62.17
33151;BME280;19508;42.578;23.416;2023-02-19T00:21:11;93940.34;;;5.70;61.97
33151;BME280;19508;42.578;23.416;2023-02-19T00:23:37;93937.72;;;5.63;62.66
33151;BME280;19508;42.578;23.416;2023-02-19T00:26:04;93946.16;;;5.67;62.23
33151;BME280;19508;42.578;23.416;2023-02-19T00:28:30;93937.44;;;5.72;62.58
33151;BME280;19508;42.578;23.416;2023-02-19T00:31:03;93934.63;;;5.91;61.66
33151;BME280;19508;42.578;23.416;2023-02-19T00:33:29;93932.63;;;5.80;61.99
33151;BME280;19508;42.578;23.416;2023-02-19T00:35:58;93937.44;;;6.15;60.88
33151;BME280;19508;42.578;23.416;2023-02-19T00:38:24;93933.22;;;6.26;60.34
33151;BME280;19508;42.578;23.416;2023-02-19T00:40:49;93923.34;;;6.26;60.10
33151;BME280;19508;42.578;23.416;2023-02-19T00:43:14;93923.91;;;6.28;60.24
33151;BME280;19508;42.578;23.416;2023-02-19T00:45:40;93922.31;;;6.09;60.60
33151;BME280;19508;42.578;23.416;2023-02-19T00:48:05;93927.34;;;5.99;61.12
33151;BME280;19508;42.578;23.416;2023-02-19T00:50:30;93917.03;;;6.02;61.03
33151;BME280;19508;42.578;23.416;2023-02-19T00:52:56;93911.16;;;5.93;61.44
33151;BME280;19508;42.578;23.416;2023-02-19T00:55:21;93902.63;;;6.03;60.91
33151;BME280;19508;42.578;23.416;2023-02-19T00:57:46;93904.59;;;5.89;61.21
33151;BME280;19508;42.578;23.416;2023-02-19T01:00:12;93902.13;;;5.70;62.27
33151;BME280;19508;42.578;23.416;2023-02-19T01:02:38;93891.75;;;5.36;63.61
33151;BME280;19508;42.578;23.416;2023-02-19T01:05:03;93892.75;;;5.42;63.52
33151;BME280;19508;42.578;23.416;2023-02-19T01:07:29;93889.91;;;5.37;63.68
33151;BME280;19508;42.578;23.416;2023-02-19T01:09:54;93905.50;;;5.40;63.31
33151;BME280;19508;42.578;23.416;2023-02-19T01:12:20;93910.63;;;5.42;63.47
33151;BME280;19508;42.578;23.416;2023-02-19T01:14:45;93896.28;;;5.36;63.24
33151;BME280;19508;42.578;23.416;2023-02-19T01:17:11;93913.56;;;5.33;63.88
33151;BME280;19508;42.578;23.416;2023-02-19T01:19:36;93903.06;;;5.38;63.88
33151;BME280;19508;42.578;23.416;2023-02-19T01:22:02;93898.00;;;5.30;64.13
33151;BME280;19508;42.578;23.416;2023-02-19T01:24:27;93894.97;;;5.45;63.83
33151;BME280;19508;42.578;23.416;2023-02-19T01:26:52;93895.38;;;5.49;63.51
33151;BME280;19508;42.578;23.416;2023-02-19T01:29:18;93887.50;;;5.54;63.11
33151;BME280;19508;42.578;23.416;2023-02-19T01:31:43;93880.41;;;5.23;64.46
33151;BME280;19508;42.578;23.416;2023-02-19T01:34:09;93902.41;;;5.18;64.65
33151;BME280;19508;42.578;23.416;2023-02-19T01:36:36;93894.06;;;5.33;64.19
33151;BME280;19508;42.578;23.416;2023-02-19T01:39:04;93908.59;;;5.37;64.00
33151;BME280;19508;42.578;23.416;2023-02-19T01:41:30;93916.13;;;5.47;63.82
33151;BME280;19508;42.578;23.416;2023-02-19T01:46:45;93922.34;;;5.41;63.69
33151;BME280;19508;42.578;23.416;2023-02-19T01:49:15;93922.41;;;5.09;64.78
33151;BME280;19508;42.578;23.416;2023-02-19T01:52:00;93939.56;;;5.20;64.69
33151;BME280;19508;42.578;23.416;2023-02-19T01:54:29;93943.50;;;5.17;64.88
33151;BME280;19508;42.578;23.416;2023-02-19T01:56:57;93945.38;;;5.10;64.81
33151;BME280;19508;42.578;23.416;2023-02-19T01:59:24;93966.38;;;5.06;64.63
33151;BME280;19508;42.578;23.416;2023-02-19T02:01:50;93969.66;;;5.02;64.77
33151;BME280;19508;42.578;23.416;2023-02-19T02:04:16;93961.16;;;5.12;65.02
33151;BME280;19508;42.578;23.416;2023-02-19T02:06:51;93967.78;;;5.09;64.76
33151;BME280;19508;42.578;23.416;2023-02-19T02:09:19;93963.63;;;5.38;63.92
33151;BME280;19508;42.578;23.416;2023-02-19T02:12:03;93973.91;;;5.91;62.10
33151;BME280;19508;42.578;23.416;2023-02-19T02:14:30;93947.47;;;6.19;61.09
33151;BME280;19508;42.578;23.416;2023-02-19T02:17:30;93958.91;;;6.08;61.43
33151;BME280;19508;42.578;23.416;2023-02-19T02:20:26;93956.00;;;6.10;61.24
33151;BME280;19508;42.578;23.416;2023-02-19T02:23:08;93970.13;;;5.99;62.08
33151;BME280;19508;42.578;23.416;2023-02-19T02:26:29;93970.84;;;6.06;61.60
33151;BME280;19508;42.578;23.416;2023-02-19T02:31:57;93952.22;;;6.17;61.00
33151;BME280;19508;42.578;23.416;2023-02-19T02:34:35;93953.94;;;6.12;60.80
33151;BME280;19508;42.578;23.416;2023-02-19T02:37:06;93948.06;;;5.78;61.86
33151;BME280;19508;42.578;23.416;2023-02-19T02:39:35;93946.44;;;5.77;62.32
33151;BME280;19508;42.578;23.416;2023-02-19T02:42:02;93952.78;;;5.83;61.95
33151;BME280;19508;42.578;23.416;2023-02-19T02:44:46;93953.16;;;5.61;62.77
33151;BME280;19508;42.578;23.416;2023-02-19T02:47:38;93952.03;;;5.51;63.13
33151;BME280;19508;42.578;23.416;2023-02-19T02:50:07;93952.63;;;5.53;63.16
33151;BME280;19508;42.578;23.416;2023-02-19T02:52:35;93955.31;;;5.53;63.13
33151;BME280;19508;42.578;23.416;2023-02-19T02:55:21;93946.25;;;5.54;62.84
33151;BME280;19508;42.578;23.416;2023-02-19T02:57:48;93948.09;;;5.28;63.76
33151;BME280;19508;42.578;23.416;2023-02-19T03:00:14;93950.97;;;5.33;63.47
33151;BME280;19508;42.578;23.416;2023-02-19T03:02:41;93934.06;;;5.15;63.76
33151;BME280;19508;42.578;23.416;2023-02-19T03:05:20;93952.75;;;5.15;64.35
33151;BME280;19508;42.578;23.416;2023-02-19T03:08:12;93960.25;;;4.99;64.79
33151;BME280;19508;42.578;23.416;2023-02-19T03:10:45;93951.66;;;4.97;64.77
33151;BME280;19508;42.578;23.416;2023-02-19T03:13:17;93956.56;;;4.94;64.93
33151;BME280;19508;42.578;23.416;2023-02-19T03:16:11;93948.81;;;4.86;65.07
33151;BME280;19508;42.578;23.416;2023-02-19T03:18:57;93946.81;;;4.81;65.68
33151;BME280;19508;42.578;23.416;2023-02-19T03:21:44;93960.78;;;4.76;65.87
33151;BME280;19508;42.578;23.416;2023-02-19T03:24:11;93948.22;;;4.84;65.55
33151;BME280;19508;42.578;23.416;2023-02-19T03:26:58;93957.72;;;4.79;65.55
33151;BME280;19508;42.578;23.416;2023-02-19T03:29:29;93971.31;;;4.65;66.04
33151;BME280;19508;42.578;23.416;2023-02-19T03:31:58;93957.88;;;4.85;65.10
33151;BME280;19508;42.578;23.416;2023-02-19T03:34:37;93975.16;;;4.75;65.78
33151;BME280;19508;42.578;23.416;2023-02-19T03:37:13;93982.31;;;4.81;65.42
33151;BME280;19508;42.578;23.416;2023-02-19T03:39:40;93984.25;;;4.61;65.96
33151;BME280;19508;42.578;23.416;2023-02-19T03:42:31;93986.34;;;4.52;66.73
33151;BME280;19508;42.578;23.416;2023-02-19T03:47:51;93992.09;;;4.56;66.82
33151;BME280;19508;42.578;23.416;2023-02-19T03:50:26;93995.34;;;4.58;66.57
33151;BME280;19508;42.578;23.416;2023-02-19T03:58:16;93983.53;;;4.41;67.27
33151;BME280;19508;42.578;23.416;2023-02-19T04:01:09;93998.47;;;4.55;66.89
33151;BME280;19508;42.578;23.416;2023-02-19T04:03:42;93993.59;;;4.45;67.24
33151;BME280;19508;42.578;23.416;2023-02-19T04:06:14;94002.78;;;4.49;67.13
33151;BME280;19508;42.578;23.416;2023-02-19T04:08:45;93994.63;;;4.44;67.32
33151;BME280;19508;42.578;23.416;2023-02-19T04:11:13;93998.34;;;4.37;67.59
33151;BME280;19508;42.578;23.416;2023-02-19T04:13:44;94006.28;;;4.50;67.10
33151;BME280;19508;42.578;23.416;2023-02-19T04:16:16;94009.59;;;4.39;67.71
33151;BME280;19508;42.578;23.416;2023-02-19T04:18:46;94004.44;;;4.44;67.37
33151;BME280;19508;42.578;23.416;2023-02-19T04:21:13;94018.84;;;4.36;67.67
33151;BME280;19508;42.578;23.416;2023-02-19T04:23:42;94008.56;;;4.40;67.29
33151;BME280;19508;42.578;23.416;2023-02-19T04:26:09;94021.91;;;4.40;67.47
33151;BME280;19508;42.578;23.416;2023-02-19T04:28:37;94027.59;;;4.50;67.11
33151;BME280;19508;42.578;23.416;2023-02-19T04:31:03;94039.31;;;4.42;67.19
33151;BME280;19508;42.578;23.416;2023-02-19T04:33:28;94032.75;;;4.45;67.03
33151;BME280;19508;42.578;23.416;2023-02-19T04:35:54;94032.34;;;4.48;67.17
33151;BME280;19508;42.578;23.416;2023-02-19T04:38:19;94031.44;;;4.67;67.10
33151;BME280;19508;42.578;23.416;2023-02-19T04:40:44;94040.84;;;4.70;66.88
33151;BME280;19508;42.578;23.416;2023-02-19T04:43:11;94042.66;;;4.82;66.00
33151;BME280;19508;42.578;23.416;2023-02-19T04:45:37;94046.09;;;4.96;65.69
33151;BME280;19508;42.578;23.416;2023-02-19T04:48:03;94046.66;;;5.05;65.33
33151;BME280;19508;42.578;23.416;2023-02-19T04:50:28;94043.00;;;4.93;65.17
33151;BME280;19508;42.578;23.416;2023-02-19T04:52:53;94036.22;;;4.97;64.97
33151;BME280;19508;42.578;23.416;2023-02-19T04:55:19;94041.81;;;4.89;65.02
33151;BME280;19508;42.578;23.416;2023-02-19T04:57:44;94040.19;;;4.88;65.00
33151;BME280;19508;42.578;23.416;2023-02-19T05:00:10;94043.69;;;4.81;65.05
33151;BME280;19508;42.578;23.416;2023-02-19T05:02:36;94043.78;;;4.62;65.71
33151;BME280;19508;42.578;23.416;2023-02-19T05:05:01;94035.44;;;4.45;66.08
33151;BME280;19508;42.578;23.416;2023-02-19T05:07:27;94060.25;;;4.39;66.30
33151;BME280;19508;42.578;23.416;2023-02-19T05:09:52;94063.97;;;4.38;66.92
33151;BME280;19508;42.578;23.416;2023-02-19T05:12:17;94054.94;;;4.25;67.23
33151;BME280;19508;42.578;23.416;2023-02-19T05:14:43;94057.00;;;4.23;67.12
33151;BME280;19508;42.578;23.416;2023-02-19T05:17:08;94057.84;;;4.17;67.26
33151;BME280;19508;42.578;23.416;2023-02-19T05:19:33;94070.16;;;4.12;67.72
33151;BME280;19508;42.578;23.416;2023-02-19T05:21:59;94064.84;;;4.05;68.00
33151;BME280;19508;42.578;23.416;2023-02-19T05:24:24;94066.69;;;4.05;68.29
33151;BME280;19508;42.578;23.416;2023-02-19T05:26:51;94075.06;;;4.08;68.32
33151;BME280;19508;42.578;23.416;2023-02-19T05:29:17;94079.59;;;4.01;68.49
33151;BME280;19508;42.578;23.416;2023-02-19T05:31:42;94064.84;;;3.99;69.06
33151;BME280;19508;42.578;23.416;2023-02-19T05:34:08;94070.94;;;4.25;68.71
33151;BME280;19508;42.578;23.416;2023-02-19T05:36:33;94073.75;;;4.44;68.92
33151;BME280;19508;42.578;23.416;2023-02-19T05:38:58;94072.09;;;4.56;68.36
33151;BME280;19508;42.578;23.416;2023-02-19T05:41:26;94066.75;;;4.63;68.25
33151;BME280;19508;42.578;23.416;2023-02-19T05:43:53;94060.31;;;4.77;67.94
33151;BME280;19508;42.578;23.416;2023-02-19T05:46:21;94072.78;;;4.90;67.66
33151;BME280;19508;42.578;23.416;2023-02-19T05:48:48;94072.75;;;4.96;68.08
33151;BME280;19508;42.578;23.416;2023-02-19T05:51:16;94074.03;;;5.25;67.77
33151;BME280;19508;42.578;23.416;2023-02-19T05:53:43;94075.16;;;5.43;67.55
33151;BME280;19508;42.578;23.416;2023-02-19T05:56:32;94074.47;;;5.54;67.14
33151;BME280;19508;42.578;23.416;2023-02-19T05:59:18;94075.16;;;5.74;67.00
33151;BME280;19508;42.578;23.416;2023-02-19T06:01:44;94074.19;;;5.93;66.83
33151;BME280;19508;42.578;23.416;2023-02-19T06:04:10;94069.66;;;6.19;66.13
33151;BME280;19508;42.578;23.416;2023-02-19T06:06:36;94080.81;;;6.34;65.28
33151;BME280;19508;42.578;23.416;2023-02-19T06:09:03;94082.19;;;6.62;64.50
33151;BME280;19508;42.578;23.416;2023-02-19T06:11:29;94090.88;;;6.94;63.36
33151;BME280;19508;42.578;23.416;2023-02-19T06:13:54;94091.03;;;7.29;62.56
33151;BME280;19508;42.578;23.416;2023-02-19T06:16:20;94093.94;;;7.57;62.11
33151;BME280;19508;42.578;23.416;2023-02-19T06:18:46;94089.69;;;7.80;61.22
33151;BME280;19508;42.578;23.416;2023-02-19T06:21:13;94089.28;;;8.06;59.66
33151;BME280;19508;42.578;23.416;2023-02-19T06:23:39;94091.28;;;8.34;59.01
33151;BME280;19508;42.578;23.416;2023-02-19T06:26:10;94102.38;;;8.61;58.07
33151;BME280;19508;42.578;23.416;2023-02-19T06:28:37;94103.19;;;8.85;58.32
33151;BME280;19508;42.578;23.416;2023-02-19T06:31:03;94105.13;;;9.13;58.01
33151;BME280;19508;42.578;23.416;2023-02-19T06:33:30;94103.69;;;9.22;56.75
33151;BME280;19508;42.578;23.416;2023-02-19T06:36:00;94108.59;;;9.25;57.22
33151;BME280;19508;42.578;23.416;2023-02-19T06:38:26;94099.19;;;9.40;56.55
33151;BME280;19508;42.578;23.416;2023-02-19T06:40:52;94095.00;;;9.44;56.94
33151;BME280;19508;42.578;23.416;2023-02-19T06:43:17;94093.72;;;9.63;56.66
33151;BME280;19508;42.578;23.416;2023-02-19T06:45:42;94092.13;;;9.79;56.00
33151;BME280;19508;42.578;23.416;2023-02-19T06:48:08;94093.31;;;10.00;55.67
33151;BME280;19508;42.578;23.416;2023-02-19T06:50:33;94093.50;;;10.10;55.61
33151;BME280;19508;42.578;23.416;2023-02-19T06:52:59;94093.34;;;10.33;53.57
33151;BME280;19508;42.578;23.416;2023-02-19T06:55:24;94097.72;;;10.73;52.98
33151;BME280;19508;42.578;23.416;2023-02-19T06:57:49;94093.91;;;11.08;52.95
33151;BME280;19508;42.578;23.416;2023-02-19T07:00:15;94099.88;;;11.32;50.84
33151;BME280;19508;42.578;23.416;2023-02-19T07:02:41;94089.56;;;11.50;50.26
33151;BME280;19508;42.578;23.416;2023-02-19T07:05:06;94097.97;;;11.54;49.35
33151;BME280;19508;42.578;23.416;2023-02-19T07:07:32;94098.38;;;11.68;48.45
33151;BME280;19508;42.578;23.416;2023-02-19T07:09:57;94091.38;;;11.89;48.58
33151;BME280;19508;42.578;23.416;2023-02-19T07:12:22;94100.88;;;11.96;48.64
33151;BME280;19508;42.578;23.416;2023-02-19T07:14:48;94105.66;;;12.16;47.61
33151;BME280;19508;42.578;23.416;2023-02-19T07:17:13;94097.91;;;12.25;47.07
33151;BME280;19508;42.578;23.416;2023-02-19T07:19:39;94096.78;;;12.21;46.53
33151;BME280;19508;42.578;23.416;2023-02-19T07:22:04;94083.34;;;12.26;46.99
33151;BME280;19508;42.578;23.416;2023-02-19T07:24:29;94084.69;;;12.60;45.82
33151;BME280;19508;42.578;23.416;2023-02-19T07:26:55;94091.19;;;12.64;46.67
33151;BME280;19508;42.578;23.416;2023-02-19T07:29:20;94082.69;;;12.83;46.23
33151;BME280;19508;42.578;23.416;2023-02-19T07:31:46;94082.94;;;13.29;44.83
33151;BME280;19508;42.578;23.416;2023-02-19T07:34:11;94075.00;;;13.69;44.31
33151;BME280;19508;42.578;23.416;2023-02-19T07:36:36;94071.56;;;14.30;43.10
33151;BME280;19508;42.578;23.416;2023-02-19T07:39:02;94065.31;;;14.85;41.34
33151;BME280;19508;42.578;23.416;2023-02-19T07:41:28;94061.94;;;15.34;41.07
33151;BME280;19508;42.578;23.416;2023-02-19T07:43:53;94063.50;;;15.66;38.99
33151;BME280;19508;42.578;23.416;2023-02-19T07:46:19;94057.78;;;15.62;39.16
33151;BME280;19508;42.578;23.416;2023-02-19T07:48:45;94068.16;;;16.04;37.14
33151;BME280;19508;42.578;23.416;2023-02-19T07:51:15;94067.69;;;15.92;37.31
33151;BME280;19508;42.578;23.416;2023-02-19T07:53:43;94071.44;;;15.96;36.72
33151;BME280;19508;42.578;23.416;2023-02-19T07:56:10;94077.69;;;15.97;36.90
33151;BME280;19508;42.578;23.416;2023-02-19T07:58:36;94069.91;;;15.80;37.45
33151;BME280;19508;42.578;23.416;2023-02-19T08:01:14;94069.91;;;15.80;37.58
33151;BME280;19508;42.578;23.416;2023-02-19T08:03:40;94070.47;;;16.21;37.30
33151;BME280;19508;42.578;23.416;2023-02-19T08:06:06;94069.59;;;16.99;35.72
33151;BME280;19508;42.578;23.416;2023-02-19T08:08:31;94059.06;;;16.92;35.90
33151;BME280;19508;42.578;23.416;2023-02-19T08:11:01;94060.69;;;16.59;36.12
33151;BME280;19508;42.578;23.416;2023-02-19T08:13:47;94063.94;;;16.96;34.92
33151;BME280;19508;42.578;23.416;2023-02-19T08:16:13;94058.91;;;16.79;35.58
33151;BME280;19508;42.578;23.416;2023-02-19T08:18:42;94053.44;;;16.84;35.47
33151;BME280;19508;42.578;23.416;2023-02-19T08:21:08;94066.09;;;17.46;34.99
33151;BME280;19508;42.578;23.416;2023-02-19T08:23:34;94060.47;;;17.62;34.33
33151;BME280;19508;42.578;23.416;2023-02-19T08:26:00;94062.91;;;18.06;33.62
33151;BME280;19508;42.578;23.416;2023-02-19T08:28:27;94064.66;;;17.54;33.47
33151;BME280;19508;42.578;23.416;2023-02-19T08:30:58;94057.47;;;17.63;33.64
33151;BME280;19508;42.578;23.416;2023-02-19T08:33:23;94066.75;;;17.62;33.79
33151;BME280;19508;42.578;23.416;2023-02-19T08:35:49;94058.97;;;17.74;33.92
33151;BME280;19508;42.578;23.416;2023-02-19T08:38:14;94064.53;;;17.64;33.53
33151;BME280;19508;42.578;23.416;2023-02-19T08:40:40;94064.88;;;17.10;34.33
33151;BME280;19508;42.578;23.416;2023-02-19T08:43:09;94061.91;;;17.06;34.83
33151;BME280;19508;42.578;23.416;2023-02-19T08:45:39;94067.19;;;16.63;35.39
33151;BME280;19508;42.578;23.416;2023-02-19T08:48:06;94063.00;;;17.05;35.08
33151;BME280;19508;42.578;23.416;2023-02-19T08:50:32;94059.25;;;16.72;35.05
33151;BME280;19508;42.578;23.416;2023-02-19T08:53:01;94056.06;;;17.42;34.94
33151;BME280;19508;42.578;23.416;2023-02-19T08:55:27;94055.75;;;18.10;33.75
33151;BME280;19508;42.578;23.416;2023-02-19T08:57:53;94044.75;;;18.20;33.00
33151;BME280;19508;42.578;23.416;2023-02-19T09:00:18;94041.25;;;19.31;31.82
33151;BME280;19508;42.578;23.416;2023-02-19T09:02:46;94034.06;;;19.35;30.70
33151;BME280;19508;42.578;23.416;2023-02-19T09:05:12;94027.16;;;18.64;32.20
33151;BME280;19508;42.578;23.416;2023-02-19T09:07:38;94029.69;;;18.42;32.46
33151;BME280;19508;42.578;23.416;2023-02-19T09:10:04;94018.63;;;19.58;31.46
33151;BME280;19508;42.578;23.416;2023-02-19T09:12:31;94013.56;;;19.65;30.96
33151;BME280;19508;42.578;23.416;2023-02-19T09:14:58;94020.00;;;19.42;31.79
33151;BME280;19508;42.578;23.416;2023-02-19T09:17:23;94008.16;;;19.47;31.40
33151;BME280;19508;42.578;23.416;2023-02-19T09:19:49;94005.81;;;19.81;30.82
33151;BME280;19508;42.578;23.416;2023-02-19T09:22:14;94001.41;;;20.66;29.47
33151;BME280;19508;42.578;23.416;2023-02-19T09:24:39;94005.53;;;20.77;29.39
33151;BME280;19508;42.578;23.416;2023-02-19T09:27:06;93995.75;;;21.47;29.16
33151;BME280;19508;42.578;23.416;2023-02-19T09:29:31;93993.94;;;20.58;30.48
33151;BME280;19508;42.578;23.416;2023-02-19T09:31:59;93992.00;;;21.03;28.71
33151;BME280;19508;42.578;23.416;2023-02-19T09:34:27;93987.25;;;21.26;29.52
33151;BME280;19508;42.578;23.416;2023-02-19T09:36:53;93986.78;;;21.64;27.85
33151;BME280;19508;42.578;23.416;2023-02-19T09:39:19;93988.59;;;19.94;29.99
33151;BME280;19508;42.578;23.416;2023-02-19T09:41:51;93991.09;;;21.25;28.75
33151;BME280;19508;42.578;23.416;2023-02-19T09:44:23;93997.50;;;21.43;28.66
33151;BME280;19508;42.578;23.416;2023-02-19T09:46:51;93992.66;;;20.78;29.91
33151;BME280;19508;42.578;23.416;2023-02-19T09:49:31;93975.28;;;20.51;29.66
33151;BME280;19508;42.578;23.416;2023-02-19T09:52:10;93981.44;;;20.21;30.66
33151;BME280;19508;42.578;23.416;2023-02-19T09:54:38;93979.81;;;20.20;30.32
33151;BME280;19508;42.578;23.416;2023-02-19T09:57:04;93977.13;;;19.42;31.71
33151;BME280;19508;42.578;23.416;2023-02-19T10:00:01;93970.25;;;20.09;30.91
33151;BME280;19508;42.578;23.416;2023-02-19T10:02:27;93974.19;;;21.54;29.79
33151;BME280;19508;42.578;23.416;2023-02-19T10:04:56;93961.97;;;20.90;29.75
33151;BME280;19508;42.578;23.416;2023-02-19T10:07:25;93949.72;;;20.87;29.35
33151;BME280;19508;42.578;23.416;2023-02-19T10:09:58;93948.75;;;20.38;30.45
33151;BME280;19508;42.578;23.416;2023-02-19T10:12:28;93943.84;;;21.42;29.35
33151;BME280;19508;42.578;23.416;2023-02-19T10:17:40;93935.66;;;19.90;31.21
33151;BME280;19508;42.578;23.416;2023-02-19T10:20:06;93932.91;;;20.71;29.67
33151;BME280;19508;42.578;23.416;2023-02-19T10:22:35;93925.81;;;20.70;29.88
33151;BME280;19508;42.578;23.416;2023-02-19T10:25:02;93920.38;;;21.19;28.57
33151;BME280;19508;42.578;23.416;2023-02-19T10:27:29;93921.69;;;21.21;28.54
33151;BME280;19508;42.578;23.416;2023-02-19T10:29:56;93907.09;;;21.34;28.67
33151;BME280;19508;42.578;23.416;2023-02-19T10:32:25;93914.38;;;21.48;28.51
33151;BME280;19508;42.578;23.416;2023-02-19T10:37:31;93900.31;;;21.32;28.92
33151;BME280;19508;42.578;23.416;2023-02-19T10:39:56;93893.63;;;21.16;28.77
33151;BME280;19508;42.578;23.416;2023-02-19T10:42:23;93886.88;;;20.20;29.63
33151;BME280;19508;42.578;23.416;2023-02-19T10:44:59;93885.59;;;20.71;29.53
33151;BME280;19508;42.578;23.416;2023-02-19T10:47:28;93877.81;;;20.95;29.00
33151;BME280;19508;42.578;23.416;2023-02-19T10:49:56;93878.78;;;20.15;30.94
33151;BME280;19508;42.578;23.416;2023-02-19T10:52:26;93872.44;;;20.50;29.83
33151;BME280;19508;42.578;23.416;2023-02-19T10:57:38;93861.59;;;21.25;29.35
33151;BME280;19508;42.578;23.416;2023-02-19T11:02:39;93846.06;;;21.60;28.03
33151;BME280;19508;42.578;23.416;2023-02-19T11:07:34;93821.31;;;22.38;27.44
33151;BME280;19508;42.578;23.416;2023-02-19T11:10:02;93830.00;;;22.57;26.77
33151;BME280;19508;42.578;23.416;2023-02-19T11:12:30;93821.72;;;22.10;27.47
33151;BME280;19508;42.578;23.416;2023-02-19T11:15:01;93816.38;;;22.69;27.05
33151;BME280;19508;42.578;23.416;2023-02-19T11:17:29;93817.06;;;22.66;26.81
33151;BME280;19508;42.578;23.416;2023-02-19T11:20:02;93814.88;;;22.42;26.28
33151;BME280;19508;42.578;23.416;2023-02-19T11:22:41;93811.09;;;21.83;27.18
33151;BME280;19508;42.578;23.416;2023-02-19T11:32:55;93791.41;;;22.15;27.09
33151;BME280;19508;42.578;23.416;2023-02-19T11:35:21;93786.09;;;21.76;27.68
33151;BME280;19508;42.578;23.416;2023-02-19T11:38:00;93781.50;;;22.70;26.71
33151;BME280;19508;42.578;23.416;2023-02-19T11:54:36;93765.75;;;22.58;26.77
33151;BME280;19508;42.578;23.416;2023-02-19T13:21:00;93604.19;;;27.13;21.20
33151;BME280;19508;42.578;23.416;2023-02-19T13:23:33;93597.59;;;27.37;20.59
33151;BME280;19508;42.578;23.416;2023-02-19T13:29:12;93579.88;;;27.80;20.19
33151;BME280;19508;42.578;23.416;2023-02-19T13:32:02;93576.50;;;27.29;20.21
33151;BME280;19508;42.578;23.416;2023-02-19T13:35:08;93563.59;;;29.60;19.20
33151;BME280;19508;42.578;23.416;2023-02-19T13:37:40;93562.72;;;29.56;18.72
33151;BME280;19508;42.578;23.416;2023-02-19T13:42:55;93561.78;;;29.45;18.55
33151;BME280;19508;42.578;23.416;2023-02-19T13:45:31;93553.50;;;29.82;17.71
33151;BME280;19508;42.578;23.416;2023-02-19T13:50:38;93550.34;;;29.84;18.23
33151;BME280;19508;42.578;23.416;2023-02-19T13:59:12;93536.66;;;31.15;17.03
33151;BME280;19508;42.578;23.416;2023-02-19T14:04:40;93535.38;;;29.21;18.90
33151;BME280;19508;42.578;23.416;2023-02-19T14:14:53;93531.81;;;30.94;16.85
33151;BME280;19508;42.578;23.416;2023-02-19T14:30:52;93517.78;;;28.50;18.38
33151;BME280;19508;42.578;23.416;2023-02-19T14:33:21;93504.56;;;29.30;18.13
33151;BME280;19508;42.578;23.416;2023-02-19T14:35:51;93513.00;;;27.32;19.68
33151;BME280;19508;42.578;23.416;2023-02-19T14:38:27;93504.63;;;26.70;20.38
33151;BME280;19508;42.578;23.416;2023-02-19T14:40:54;93517.25;;;25.85;21.35
33151;BME280;19508;42.578;23.416;2023-02-19T14:43:22;93515.19;;;24.67;23.04
33151;BME280;19508;42.578;23.416;2023-02-19T14:45:52;93517.81;;;23.86;23.14
33151;BME280;19508;42.578;23.416;2023-02-19T14:48:25;93511.69;;;22.99;24.11
33151;BME280;19508;42.578;23.416;2023-02-19T14:51:00;93514.06;;;22.67;24.38
33151;BME280;19508;42.578;23.416;2023-02-19T14:53:28;93506.88;;;21.83;25.08
33151;BME280;19508;42.578;23.416;2023-02-19T14:55:55;93501.63;;;21.39;26.00
33151;BME280;19508;42.578;23.416;2023-02-19T14:58:29;93515.16;;;20.54;27.35
33151;BME280;19508;42.578;23.416;2023-02-19T15:00:56;93503.72;;;20.18;28.05
33151;BME280;19508;42.578;23.416;2023-02-19T15:03:30;93512.94;;;19.73;28.44
33151;BME280;19508;42.578;23.416;2023-02-19T15:06:06;93498.13;;;19.57;28.15
33151;BME280;19508;42.578;23.416;2023-02-19T15:08:39;93512.00;;;19.38;29.90
33151;BME280;19508;42.578;23.416;2023-02-19T15:11:09;93510.69;;;19.27;29.41
33151;BME280;19508;42.578;23.416;2023-02-19T15:13:36;93513.88;;;18.90;29.95
33151;BME280;19508;42.578;23.416;2023-02-19T15:16:02;93500.84;;;18.86;29.89
33151;BME280;19508;42.578;23.416;2023-02-19T15:18:28;93502.34;;;18.70;31.45
33151;BME280;19508;42.578;23.416;2023-02-19T15:20:59;93507.44;;;18.63;31.76
33151;BME280;19508;42.578;23.416;2023-02-19T15:23:26;93511.50;;;18.52;31.73
33151;BME280;19508;42.578;23.416;2023-02-19T15:25:54;93516.19;;;18.15;31.14
33151;BME280;19508;42.578;23.416;2023-02-19T15:33:24;93504.25;;;17.89;32.10
33151;BME280;19508;42.578;23.416;2023-02-19T15:35:57;93505.38;;;17.60;33.88
33151;BME280;19508;42.578;23.416;2023-02-19T15:38:24;93503.69;;;17.51;34.28
33151;BME280;19508;42.578;23.416;2023-02-19T15:40:50;93499.06;;;17.24;35.37
33151;BME280;19508;42.578;23.416;2023-02-19T15:43:47;93506.09;;;16.97;36.03
33151;BME280;19508;42.578;23.416;2023-02-19T15:46:20;93507.00;;;16.60;36.51
33151;BME280;19508;42.578;23.416;2023-02-19T15:48:55;93511.47;;;16.37;36.57
33151;BME280;19508;42.578;23.416;2023-02-19T15:51:50;93525.22;;;16.27;36.08
33151;BME280;19508;42.578;23.416;2023-02-19T15:54:24;93520.16;;;16.20;37.04
33151;BME280;19508;42.578;23.416;2023-02-19T15:56:52;93528.00;;;16.03;35.85
33151;BME280;19508;42.578;23.416;2023-02-19T15:59:40;93524.50;;;16.02;35.68
33151;BME280;19508;42.578;23.416;2023-02-19T16:02:14;93529.75;;;16.13;35.95
33151;BME280;19508;42.578;23.416;2023-02-19T16:04:42;93534.22;;;16.22;34.72